Terminal Aerodrome Forecast
Issued by NWS

Home | Current Version | Previous Version | Text Only | Print | Product List | Glossary On
Versions: 1 2 3 4 5 6 7 8 9 10 11 12 13 14 15 16 17 18 19 20 21 22 23 24 25 26 27 28 29 30 31 32 33
000
FTUS44 KOUN 050932 AAC
TAFPNC
TAF AMD
KPNC 050932Z 0510/0606 15006KT 5SM BR BKN060
     FM051200 36015G25KT 4SM TSRA BR SCT015 OVC060CB
      TEMPO 0512/0514 35020G35KT 1SM +TSRA BR BKN015CB
     FM051400 08009KT P6SM SCT040 BKN080=

USA.gov is the U.S. government's official web portal to all federal, state and local government web resources and services.